createdAt,value
2023-04-15T00:00:56.585Z,27.44
2023-04-15T00:01:56.667Z,27.44
2023-04-15T00:02:56.762Z,27.43
2023-04-15T00:03:56.648Z,27.41
2023-04-15T00:04:56.559Z,27.41
2023-04-15T00:05:56.554Z,27.44
2023-04-15T00:06:56.537Z,27.47
2023-04-15T00:07:56.527Z,27.44
2023-04-15T00:08:56.525Z,27.44
2023-04-15T00:09:56.517Z,27.38
2023-04-15T00:10:56.553Z,27.45
2023-04-15T00:11:56.506Z,27.48
2023-04-15T00:12:56.506Z,27.54
2023-04-15T00:13:56.493Z,27.47
2023-04-15T00:14:56.486Z,27.48
2023-04-15T00:15:56.473Z,27.51
2023-04-15T00:16:56.549Z,27.48
2023-04-15T00:17:56.490Z,27.47
2023-04-15T00:18:56.449Z,27.51
2023-04-15T00:19:56.448Z,27.45
2023-04-15T00:20:56.441Z,27.51
2023-04-15T00:21:56.437Z,27.54
2023-04-15T00:22:56.427Z,27.51
2023-04-15T00:23:56.420Z,27.48
2023-04-15T00:24:56.411Z,27.51
2023-04-15T00:25:56.405Z,27.52
2023-04-15T00:26:56.431Z,27.50
2023-04-15T00:27:56.396Z,27.51
2023-04-15T00:28:56.394Z,27.48
2023-04-15T00:29:56.384Z,27.52
2023-04-15T00:30:56.419Z,27.50
2023-04-15T00:31:56.373Z,27.48
2023-04-15T00:32:56.454Z,27.47
2023-04-15T00:33:56.362Z,27.42
2023-04-15T00:34:56.363Z,27.54
2023-04-15T00:35:56.351Z,27.52
2023-04-15T00:36:56.343Z,27.49
2023-04-15T00:37:56.329Z,27.52
2023-04-15T00:38:56.329Z,27.49
2023-04-15T00:39:56.317Z,27.49
2023-04-15T00:40:56.317Z,27.49
2023-04-15T00:41:56.315Z,27.52
2023-04-15T00:42:56.339Z,27.55
2023-04-15T00:43:56.298Z,27.51
2023-04-15T00:44:56.286Z,27.52
2023-04-15T00:45:56.286Z,27.49
2023-04-15T00:46:56.275Z,27.49
2023-04-15T00:47:56.337Z,27.51
2023-04-15T00:48:56.263Z,27.49
2023-04-15T00:49:56.258Z,27.52
2023-04-15T00:50:56.249Z,27.55
2023-04-15T00:51:56.236Z,27.55
2023-04-15T00:52:56.230Z,27.52
2023-04-15T00:53:56.218Z,27.49
2023-04-15T00:54:56.218Z,27.49
2023-04-15T00:55:56.220Z,27.51
2023-04-15T00:56:56.210Z,27.52
2023-04-15T00:57:56.196Z,27.52
2023-04-15T00:58:56.219Z,27.52
2023-04-15T00:59:56.242Z,27.49
2023-04-15T01:00:56.201Z,27.54
2023-04-15T01:01:56.308Z,27.54
2023-04-15T01:02:56.322Z,27.54
2023-04-15T01:03:56.358Z,27.52
2023-04-15T01:04:56.160Z,27.51
2023-04-15T01:05:56.149Z,27.55
2023-04-15T01:06:56.145Z,27.51
2023-04-15T01:07:56.141Z,27.48
2023-04-15T01:08:56.124Z,27.56
2023-04-15T01:09:56.120Z,27.48
2023-04-15T01:10:56.116Z,27.52
2023-04-15T01:11:56.115Z,27.55
2023-04-15T01:12:56.107Z,27.54
2023-04-15T01:13:56.106Z,27.56
2023-04-15T01:14:56.143Z,27.58
2023-04-15T01:15:56.112Z,27.52
2023-04-15T01:16:56.077Z,27.49
2023-04-15T01:17:56.095Z,27.56
2023-04-15T01:18:56.071Z,27.55
2023-04-15T01:19:56.589Z,27.58
2023-04-15T01:20:56.580Z,27.55
2023-04-15T01:21:56.059Z,27.55
2023-04-15T01:22:56.081Z,27.52
2023-04-15T01:23:56.075Z,27.54
2023-04-15T01:24:56.086Z,27.49
2023-04-15T01:25:56.099Z,27.54
2023-04-15T01:26:56.106Z,27.57
2023-04-15T01:27:56.128Z,27.49
2023-04-15T01:28:56.135Z,27.54
2023-04-15T01:29:56.147Z,27.54
2023-04-15T01:30:56.181Z,27.51
2023-04-15T01:31:56.287Z,27.55
2023-04-15T01:32:56.225Z,27.52
2023-04-15T01:33:56.188Z,27.52
2023-04-15T01:34:56.191Z,27.51
2023-04-15T01:35:56.199Z,27.51
2023-04-15T01:36:56.219Z,27.49
2023-04-15T01:37:56.215Z,27.57
2023-04-15T01:38:56.223Z,27.51
2023-04-15T01:39:56.237Z,27.47
2023-04-15T01:40:56.252Z,27.51
2023-04-15T01:41:56.280Z,27.52
2023-04-15T01:42:56.302Z,27.55
2023-04-15T01:43:56.306Z,27.52
2023-04-15T01:44:56.303Z,27.54
2023-04-15T01:45:56.296Z,27.52
2023-04-15T01:46:56.458Z,27.51
2023-04-15T01:47:56.361Z,27.52
2023-04-15T01:48:56.329Z,27.51
2023-04-15T01:49:56.339Z,27.52
2023-04-15T01:50:56.345Z,27.54
2023-04-15T01:51:56.341Z,27.54
2023-04-15T01:52:56.352Z,27.51
2023-04-15T01:53:56.354Z,27.54
2023-04-15T01:54:56.363Z,27.51
2023-04-15T01:55:56.368Z,27.52
2023-04-15T01:56:56.381Z,27.55
2023-04-15T01:57:56.400Z,27.52
2023-04-15T01:58:56.404Z,27.52
2023-04-15T01:59:56.422Z,27.52
2023-04-15T02:00:56.461Z,27.52
2023-04-15T02:01:56.552Z,27.52
2023-04-15T02:02:56.562Z,27.53
2023-04-15T02:03:56.503Z,27.55
2023-04-15T02:04:56.493Z,27.52
2023-04-15T02:05:56.497Z,27.49
2023-04-15T02:06:56.517Z,27.52
2023-04-15T02:07:56.533Z,27.49
2023-04-15T02:08:56.538Z,27.49
2023-04-15T02:09:56.561Z,27.54
2023-04-15T02:10:56.584Z,27.54
2023-04-15T02:11:56.614Z,27.51
2023-04-15T02:12:56.633Z,27.51
2023-04-15T02:13:56.616Z,27.47
2023-04-15T02:14:56.648Z,27.53
2023-04-15T02:15:56.644Z,27.52
2023-04-15T02:16:56.816Z,27.48
2023-04-15T02:17:56.723Z,27.47
2023-04-15T02:18:56.775Z,27.49
2023-04-15T02:19:56.689Z,27.52
2023-04-15T02:20:56.714Z,27.51
2023-04-15T02:21:56.703Z,27.51
2023-04-15T02:22:56.716Z,27.49
2023-04-15T02:23:56.720Z,27.51
2023-04-15T02:24:56.747Z,27.49
2023-04-15T02:25:56.760Z,27.55
2023-04-15T02:26:56.773Z,27.43
2023-04-15T02:27:56.779Z,27.45
2023-04-15T02:28:56.794Z,27.51
2023-04-15T02:29:56.813Z,27.48
2023-04-15T02:30:56.818Z,27.47
2023-04-15T02:31:56.905Z,27.51
2023-04-15T02:32:56.896Z,27.52
2023-04-15T02:33:56.855Z,27.49
2023-04-15T02:34:56.889Z,27.49
2023-04-15T02:35:56.883Z,27.48
2023-04-15T02:36:56.890Z,27.46
2023-04-15T02:37:56.889Z,27.46
2023-04-15T02:38:56.888Z,27.52
2023-04-15T02:39:56.900Z,27.49
2023-04-15T02:40:56.911Z,27.49
2023-04-15T02:41:56.918Z,27.46
2023-04-15T02:42:56.929Z,27.48
2023-04-15T02:43:56.949Z,27.49
2023-04-15T02:44:56.952Z,27.49
2023-04-15T02:45:56.994Z,27.47
2023-04-15T02:46:56.978Z,27.50
2023-04-15T02:47:57.652Z,27.46
2023-04-15T02:48:56.974Z,27.50
2023-04-15T02:49:56.979Z,27.47
2023-04-15T02:50:57.014Z,27.47
2023-04-15T02:51:56.990Z,27.45
2023-04-15T02:52:57.009Z,27.43
2023-04-15T02:53:57.017Z,27.52
2023-04-15T02:54:57.047Z,27.44
2023-04-15T02:55:57.054Z,27.47
2023-04-15T02:56:57.063Z,27.51
2023-04-15T02:57:57.079Z,27.50
2023-04-15T02:58:57.091Z,27.46
2023-04-15T02:59:57.103Z,27.47
2023-04-15T03:00:57.120Z,27.47
2023-04-15T03:01:57.148Z,27.51
2023-04-15T03:02:57.244Z,27.46
2023-04-15T03:03:57.222Z,27.43
2023-04-15T03:04:57.169Z,27.43
2023-04-15T03:05:57.180Z,27.52
2023-04-15T03:06:57.236Z,27.51
2023-04-15T03:07:57.192Z,27.48
2023-04-15T03:08:57.226Z,27.49
2023-04-15T03:09:57.221Z,27.47
2023-04-15T03:10:57.222Z,27.43
2023-04-15T03:11:57.232Z,27.43
2023-04-15T03:12:57.258Z,27.48
2023-04-15T03:13:57.261Z,27.42
2023-04-15T03:14:57.257Z,27.51
2023-04-15T03:15:57.303Z,27.43
2023-04-15T03:16:57.275Z,27.47
2023-04-15T03:17:57.401Z,27.49
2023-04-15T03:18:57.298Z,27.47
2023-04-15T03:19:57.332Z,27.45
2023-04-15T03:20:57.303Z,27.49
2023-04-15T03:21:57.319Z,27.45
2023-04-15T03:22:57.356Z,27.47
2023-04-15T03:23:57.325Z,27.47
2023-04-15T03:24:57.353Z,27.44
2023-04-15T03:25:57.374Z,27.43
2023-04-15T03:26:57.374Z,27.43
2023-04-15T03:27:57.392Z,27.46
2023-04-15T03:28:57.447Z,27.43
2023-04-15T03:29:57.441Z,27.45
2023-04-15T03:30:57.449Z,27.46
2023-04-15T03:31:57.446Z,27.45
2023-04-15T03:32:57.485Z,27.43
2023-04-15T03:33:57.470Z,27.40
2023-04-15T03:34:57.468Z,27.44
2023-04-15T03:35:57.484Z,27.47
2023-04-15T03:36:57.473Z,27.52
2023-04-15T03:37:57.470Z,27.42
2023-04-15T03:38:57.507Z,27.42
2023-04-15T03:39:57.499Z,27.40
2023-04-15T03:40:57.517Z,27.47
2023-04-15T03:41:57.535Z,27.47
2023-04-15T03:42:57.540Z,27.47
2023-04-15T03:43:57.552Z,27.44
2023-04-15T03:44:57.595Z,27.50
2023-04-15T03:45:57.599Z,27.47
2023-04-15T03:46:57.599Z,27.44
2023-04-15T03:48:07.290Z,27.53
2023-04-15T03:48:57.606Z,27.43
2023-04-15T03:49:57.617Z,27.45
2023-04-15T03:50:57.583Z,27.47
2023-04-15T03:51:57.589Z,27.43
2023-04-15T03:52:57.562Z,27.39
2023-04-15T03:53:57.562Z,27.45
2023-04-15T03:54:57.577Z,27.45
2023-04-15T03:55:57.570Z,27.46
2023-04-15T03:56:57.544Z,27.43
2023-04-15T03:57:57.539Z,27.46
2023-04-15T03:58:57.532Z,27.47
2023-04-15T03:59:57.525Z,27.44
2023-04-15T04:00:57.512Z,27.46
2023-04-15T04:01:57.629Z,27.44
2023-04-15T04:02:57.801Z,27.44
2023-04-15T04:03:57.681Z,27.42
2023-04-15T04:04:57.490Z,27.46
2023-04-15T04:05:57.480Z,27.42
2023-04-15T04:06:57.483Z,27.46
2023-04-15T04:07:57.465Z,27.45
2023-04-15T04:08:57.466Z,27.42
2023-04-15T04:09:57.457Z,27.46
2023-04-15T04:10:57.500Z,27.46
2023-04-15T04:11:57.448Z,27.43
2023-04-15T04:12:57.451Z,27.43
2023-04-15T04:13:57.439Z,27.43
2023-04-15T04:14:57.440Z,27.43
2023-04-15T04:15:57.450Z,27.44
2023-04-15T04:16:57.498Z,27.43
2023-04-15T04:17:57.457Z,27.50
2023-04-15T04:18:57.405Z,27.46
2023-04-15T04:19:57.408Z,27.49
2023-04-15T04:20:57.389Z,27.47
2023-04-15T04:21:57.393Z,27.45
2023-04-15T04:22:57.380Z,27.44
2023-04-15T04:23:57.380Z,27.44
2023-04-15T04:24:57.372Z,27.47
2023-04-15T04:25:57.370Z,27.44
2023-04-15T04:26:57.472Z,27.43
2023-04-15T04:27:57.350Z,27.40
2023-04-15T04:28:57.341Z,27.43
2023-04-15T04:29:57.339Z,27.46
2023-04-15T04:30:57.328Z,27.44
2023-04-15T04:31:57.345Z,27.44
2023-04-15T04:32:57.374Z,27.42
2023-04-15T04:33:57.325Z,27.47
2023-04-15T04:34:57.296Z,27.45
2023-04-15T04:35:57.294Z,27.46
2023-04-15T04:36:58.156Z,27.43
2023-04-15T04:37:57.281Z,27.45
2023-04-15T04:38:57.289Z,27.45
2023-04-15T04:39:57.259Z,27.49
2023-04-15T04:40:57.266Z,27.46
2023-04-15T04:41:57.256Z,27.44
2023-04-15T04:42:57.265Z,27.39
2023-04-15T04:43:57.244Z,27.42
2023-04-15T04:44:57.224Z,27.46
2023-04-15T04:45:57.257Z,27.43
2023-04-15T04:46:57.207Z,27.43
2023-04-15T04:47:57.253Z,27.37
2023-04-15T04:48:57.214Z,27.37
2023-04-15T04:49:57.200Z,27.46
2023-04-15T04:50:57.191Z,27.43
2023-04-15T04:51:57.185Z,27.44
2023-04-15T04:52:57.176Z,27.46
2023-04-15T04:53:57.169Z,27.44
2023-04-15T04:54:57.162Z,27.43
2023-04-15T04:55:57.155Z,27.44
2023-04-15T04:56:57.148Z,27.44
2023-04-15T04:57:57.140Z,27.42
2023-04-15T04:58:57.157Z,27.43
2023-04-15T04:59:57.122Z,27.46
2023-04-15T05:00:57.170Z,27.44
2023-04-15T05:01:57.200Z,27.44
2023-04-15T05:02:57.241Z,27.44
2023-04-15T05:03:57.222Z,27.43
2023-04-15T05:04:57.097Z,27.44
2023-04-15T05:05:57.094Z,27.41
2023-04-15T05:06:57.083Z,27.47
2023-04-15T05:07:57.081Z,27.44
2023-04-15T05:08:57.070Z,27.44
2023-04-15T05:09:57.065Z,27.47
2023-04-15T05:10:57.064Z,27.40
2023-04-15T05:11:57.070Z,27.47
2023-04-15T05:12:57.078Z,27.44
2023-04-15T05:13:57.102Z,27.44
2023-04-15T05:14:57.147Z,27.44
2023-04-15T05:15:57.213Z,27.46
2023-04-15T05:16:57.175Z,27.42
2023-04-15T05:17:57.209Z,27.42
2023-04-15T05:18:57.191Z,27.42
2023-04-15T05:19:57.206Z,27.42
2023-04-15T05:20:57.226Z,27.43
2023-04-15T05:21:57.239Z,27.46
2023-04-15T05:22:57.250Z,27.40
2023-04-15T05:23:57.266Z,27.42
2023-04-15T05:24:57.289Z,27.43
2023-04-15T05:25:57.313Z,27.43
2023-04-15T05:26:57.346Z,27.40
2023-04-15T05:27:57.352Z,27.42
2023-04-15T05:28:57.371Z,27.40
2023-04-15T05:29:57.389Z,27.43
2023-04-15T05:30:57.437Z,27.40
2023-04-15T05:31:57.394Z,27.42
2023-04-15T05:32:57.455Z,27.40
2023-04-15T05:33:57.436Z,27.39
2023-04-15T05:34:57.452Z,27.46
2023-04-15T05:35:57.457Z,27.40
2023-04-15T05:36:57.458Z,27.38
2023-04-15T05:37:57.457Z,27.36
2023-04-15T05:38:57.465Z,27.40
2023-04-15T05:39:57.453Z,27.42
2023-04-15T05:40:57.450Z,27.37
2023-04-15T05:41:57.466Z,27.37
2023-04-15T05:42:57.486Z,27.37
2023-04-15T05:43:57.493Z,27.40
2023-04-15T05:44:57.497Z,27.36
2023-04-15T05:45:57.584Z,27.39
2023-04-15T05:46:57.565Z,27.36
2023-04-15T05:47:57.597Z,27.36
2023-04-15T05:48:57.599Z,27.43
2023-04-15T05:49:57.599Z,27.34
2023-04-15T05:50:57.634Z,27.43
2023-04-15T05:51:57.654Z,27.40
2023-04-15T05:52:57.669Z,27.37
2023-04-15T05:53:57.701Z,27.39
2023-04-15T05:54:57.703Z,27.32
2023-04-15T05:55:57.725Z,26.38
2023-04-15T05:56:57.816Z,26.04
2023-04-15T05:57:57.817Z,26.11
2023-04-15T05:58:57.831Z,26.35
2023-04-15T05:59:58.197Z,26.76
2023-04-15T06:00:57.921Z,27.10
2023-04-15T06:01:58.019Z,27.34
2023-04-15T06:02:58.147Z,27.62
2023-04-15T06:03:58.149Z,27.79
2023-04-15T06:04:58.203Z,27.89
2023-04-15T06:05:58.197Z,28.00
2023-04-15T06:06:58.238Z,28.08
2023-04-15T06:07:58.261Z,28.09
2023-04-15T06:08:58.270Z,28.14
2023-04-15T06:09:58.284Z,28.30
2023-04-15T06:10:58.283Z,28.48
2023-04-15T06:11:58.313Z,28.58
2023-04-15T06:12:58.367Z,28.70
2023-04-15T06:13:58.426Z,28.80
2023-04-15T06:15:00.093Z,28.91
2023-04-15T06:15:58.539Z,29.01
2023-04-15T06:16:58.482Z,29.06
2023-04-15T06:17:58.520Z,29.10
2023-04-15T06:18:58.604Z,29.07
2023-04-15T06:19:58.456Z,29.12
2023-04-15T06:20:58.453Z,29.09
2023-04-15T06:21:58.443Z,29.18
2023-04-15T06:22:58.440Z,29.18
2023-04-15T06:23:58.430Z,29.21
2023-04-15T06:24:58.429Z,29.25
2023-04-15T06:25:58.421Z,29.33
2023-04-15T06:26:58.416Z,29.36
2023-04-15T06:27:58.413Z,29.38
2023-04-15T06:28:58.448Z,29.45
2023-04-15T06:29:58.404Z,29.53
2023-04-15T06:30:58.395Z,29.61
2023-04-15T06:31:58.441Z,29.66
2023-04-15T06:32:58.418Z,29.63
2023-04-15T06:33:58.370Z,29.70
2023-04-15T06:34:58.388Z,29.81
2023-04-15T06:35:58.362Z,29.76
2023-04-15T06:36:58.355Z,29.85
2023-04-15T06:37:58.355Z,29.86
2023-04-15T06:38:58.354Z,29.92
2023-04-15T06:39:58.338Z,29.97
2023-04-15T06:40:58.317Z,30.09
2023-04-15T06:41:58.320Z,30.16
2023-04-15T06:42:58.325Z,30.06
2023-04-15T06:43:58.297Z,30.22
2023-04-15T06:44:58.292Z,30.19
2023-04-15T06:45:58.389Z,30.30
2023-04-15T06:46:58.277Z,30.35
2023-04-15T06:47:58.331Z,30.46
2023-04-15T06:48:58.272Z,30.53
2023-04-15T06:49:58.285Z,30.44
2023-04-15T06:50:58.314Z,30.47
2023-04-15T06:51:58.259Z,30.57
2023-04-15T06:52:58.246Z,30.51
2023-04-15T06:53:58.249Z,30.73
2023-04-15T06:54:58.228Z,30.78
2023-04-15T06:55:58.220Z,30.85
2023-04-15T06:56:58.217Z,30.75
2023-04-15T06:57:58.210Z,30.97
2023-04-15T06:58:58.203Z,30.97
2023-04-15T06:59:58.195Z,31.10
2023-04-15T07:00:58.228Z,31.05
2023-04-15T07:01:58.203Z,31.00
2023-04-15T07:02:58.206Z,31.20
2023-04-15T07:03:58.177Z,31.29
2023-04-15T07:04:58.162Z,31.17
2023-04-15T07:05:58.151Z,31.30
2023-04-15T07:06:58.205Z,31.19
2023-04-15T07:07:58.245Z,31.26
2023-04-15T07:08:58.307Z,31.09
2023-04-15T07:09:58.341Z,31.02
2023-04-15T07:10:58.379Z,30.92
2023-04-15T07:11:58.396Z,30.78
2023-04-15T07:12:58.409Z,30.57
2023-04-15T07:13:58.413Z,30.60
2023-04-15T07:14:58.421Z,30.49
2023-04-15T07:15:58.426Z,30.22
2023-04-15T07:16:58.489Z,29.95
2023-04-15T07:17:58.460Z,27.15
2023-04-15T07:18:58.451Z,25.63
2023-04-15T07:19:58.491Z,24.97
2023-04-15T07:20:58.533Z,25.56
2023-04-15T07:21:58.555Z,24.46
2023-04-15T07:22:58.594Z,24.30
2023-04-15T07:23:58.603Z,24.12
2023-04-15T07:24:58.680Z,24.13
2023-04-15T07:26:05.629Z,24.11
2023-04-15T07:27:00.326Z,24.46
2023-04-15T07:27:58.677Z,24.71
2023-04-15T07:28:58.717Z,24.98
2023-04-15T07:29:58.670Z,25.16
2023-04-15T07:30:58.712Z,25.32
2023-04-15T07:31:58.659Z,25.46
2023-04-15T07:32:58.677Z,25.47
2023-04-15T07:33:58.697Z,25.55
2023-04-15T07:34:58.638Z,25.49
2023-04-15T07:35:58.637Z,25.45
2023-04-15T07:36:58.622Z,25.47
2023-04-15T07:37:58.615Z,25.45
2023-04-15T07:38:58.634Z,25.52
2023-04-15T07:39:58.608Z,25.73
2023-04-15T07:40:58.611Z,25.92
2023-04-15T07:41:58.597Z,26.21
2023-04-15T07:42:58.606Z,26.44
2023-04-15T07:43:58.581Z,26.45
2023-04-15T07:44:58.566Z,26.51
2023-04-15T07:45:58.592Z,26.53
2023-04-15T07:46:58.567Z,26.58
2023-04-15T07:47:57.624Z,26.65
2023-04-15T07:48:58.548Z,26.68
2023-04-15T07:49:58.542Z,26.74
2023-04-15T07:50:58.531Z,26.77
2023-04-15T07:51:58.520Z,26.85
2023-04-15T07:52:58.528Z,26.83
2023-04-15T07:53:58.513Z,26.95
2023-04-15T07:54:58.531Z,26.90
2023-04-15T07:55:58.502Z,26.91
2023-04-15T07:56:58.668Z,27.01
2023-04-15T07:57:58.534Z,27.13
2023-04-15T07:58:58.620Z,27.22
2023-04-15T07:59:58.584Z,27.23
2023-04-15T08:00:58.594Z,27.32
2023-04-15T08:01:58.630Z,27.39
2023-04-15T08:02:58.789Z,27.47
2023-04-15T08:03:58.755Z,27.51
2023-04-15T08:04:58.687Z,27.64
2023-04-15T08:05:58.706Z,27.68
2023-04-15T08:06:58.718Z,27.80
2023-04-15T08:07:58.732Z,27.81
2023-04-15T08:08:58.817Z,27.91
2023-04-15T08:09:58.833Z,27.96
2023-04-15T08:10:58.914Z,28.06
2023-04-15T08:11:58.882Z,28.13
2023-04-15T08:12:59.270Z,28.24
2023-04-15T08:13:58.894Z,28.33
2023-04-15T08:14:58.873Z,28.41
2023-04-15T08:15:58.940Z,28.37
2023-04-15T08:16:58.866Z,28.49
2023-04-15T08:17:58.896Z,28.59
2023-04-15T08:18:58.933Z,28.66
2023-04-15T08:19:58.862Z,28.78
2023-04-15T08:20:58.867Z,28.82
2023-04-15T08:21:58.885Z,28.96
2023-04-15T08:22:58.943Z,28.96
2023-04-15T08:23:58.974Z,28.98
2023-04-15T08:24:58.970Z,28.98
2023-04-15T08:25:58.974Z,29.03
2023-04-15T08:26:59.001Z,28.99
2023-04-15T08:27:58.975Z,28.01
2023-04-15T08:28:59.006Z,27.41
2023-04-15T08:29:58.999Z,27.64
2023-04-15T08:30:59.019Z,27.76
2023-04-15T08:31:59.074Z,27.98
2023-04-15T08:32:59.102Z,27.93
2023-04-15T08:33:59.081Z,27.96
2023-04-15T08:34:59.093Z,27.95
2023-04-15T08:35:59.115Z,28.03
2023-04-15T08:36:59.122Z,28.02
2023-04-15T08:37:59.139Z,28.12
2023-04-15T08:38:59.159Z,28.16
2023-04-15T08:39:59.168Z,28.20
2023-04-15T08:40:59.178Z,28.26
2023-04-15T08:41:59.175Z,28.32
2023-04-15T08:42:59.208Z,28.32
2023-04-15T08:43:59.183Z,28.35
2023-04-15T08:44:59.212Z,28.35
2023-04-15T08:45:59.204Z,28.36
2023-04-15T08:46:59.293Z,28.36
2023-04-15T08:47:59.321Z,28.34
2023-04-15T08:48:59.274Z,28.34
2023-04-15T08:49:59.228Z,28.17
2023-04-15T08:50:59.291Z,28.11
2023-04-15T08:51:59.331Z,28.14
2023-04-15T08:52:59.400Z,28.24
2023-04-15T08:53:59.393Z,28.32
2023-04-15T08:54:59.393Z,28.35
2023-04-15T08:55:59.395Z,28.44
2023-04-15T08:56:59.405Z,28.50
2023-04-15T08:57:59.395Z,28.51
2023-04-15T08:58:59.469Z,28.58
2023-04-15T08:59:59.394Z,28.70
2023-04-15T09:00:59.434Z,28.78
2023-04-15T09:01:59.489Z,28.83
2023-04-15T09:02:59.535Z,28.81
2023-04-15T09:03:59.454Z,28.91
2023-04-15T09:04:59.523Z,29.00
2023-04-15T09:05:59.535Z,29.06
2023-04-15T09:06:59.553Z,29.08
2023-04-15T09:07:59.619Z,29.30
2023-04-15T09:08:59.875Z,29.36
2023-04-15T09:09:59.696Z,29.37
2023-04-15T09:10:59.737Z,29.51
2023-04-15T09:11:59.788Z,29.47
2023-04-15T09:12:59.834Z,29.54
2023-04-15T09:13:59.910Z,29.57
2023-04-15T09:14:59.983Z,29.73
2023-04-15T09:16:00.044Z,29.77
2023-04-15T09:17:00.131Z,29.80
2023-04-15T09:18:00.195Z,29.84
2023-04-15T09:19:00.383Z,29.96
2023-04-15T09:20:00.237Z,30.09
2023-04-15T09:21:00.296Z,30.11
2023-04-15T09:22:00.370Z,30.13
2023-04-15T09:23:00.406Z,30.22
2023-04-15T09:24:00.625Z,30.24
2023-04-15T09:25:00.527Z,30.26
2023-04-15T09:26:00.550Z,30.34
2023-04-15T09:27:00.617Z,30.39
2023-04-15T09:28:00.651Z,30.40
2023-04-15T09:29:00.703Z,30.45
2023-04-15T09:30:00.769Z,30.52
2023-04-15T09:31:00.896Z,30.53
2023-04-15T09:32:00.900Z,30.59
2023-04-15T09:33:00.998Z,30.62
2023-04-15T09:34:01.394Z,30.63
2023-04-15T09:35:01.085Z,30.67
2023-04-15T09:36:01.144Z,30.90
2023-04-15T09:37:01.197Z,30.83
2023-04-15T09:38:01.260Z,31.02
2023-04-15T09:39:01.389Z,30.99
2023-04-15T09:40:01.420Z,31.02
2023-04-15T09:41:01.451Z,30.89
2023-04-15T09:42:01.537Z,30.85
2023-04-15T09:43:01.564Z,30.74
2023-04-15T09:44:01.900Z,30.71
2023-04-15T09:45:01.652Z,30.56
2023-04-15T09:46:01.750Z,30.46
2023-04-15T09:47:01.716Z,30.39
2023-04-15T09:48:01.722Z,30.25
2023-04-15T09:49:01.701Z,30.09
2023-04-15T09:50:02.029Z,29.93
2023-04-15T09:51:01.839Z,29.75
2023-04-15T09:52:05.588Z,29.53
2023-04-15T09:53:01.914Z,29.33
2023-04-15T09:54:02.114Z,29.09
2023-04-15T09:55:02.019Z,28.94
2023-04-15T09:56:02.014Z,28.75
2023-04-15T09:57:02.018Z,28.62
2023-04-15T09:58:02.092Z,28.07
2023-04-15T09:59:02.066Z,28.20
2023-04-15T10:00:02.120Z,28.14
2023-04-15T10:01:02.176Z,28.14
2023-04-15T10:02:02.117Z,28.05
2023-04-15T10:03:02.349Z,27.81
2023-04-15T10:04:02.619Z,27.70
2023-04-15T10:05:02.126Z,27.58
2023-04-15T10:06:02.154Z,27.48
2023-04-15T10:07:02.147Z,27.49
2023-04-15T10:08:02.152Z,27.48
2023-04-15T10:09:02.169Z,27.61
2023-04-15T10:10:02.168Z,27.64
2023-04-15T10:11:02.234Z,27.64
2023-04-15T10:12:02.178Z,27.77
2023-04-15T10:13:02.228Z,27.71
2023-04-15T10:14:02.596Z,27.84
2023-04-15T10:15:02.307Z,27.82
2023-04-15T10:16:02.416Z,27.85
2023-04-15T10:17:02.298Z,27.98
2023-04-15T10:18:02.371Z,27.91
2023-04-15T10:19:02.332Z,27.96
2023-04-15T10:20:02.312Z,28.02
2023-04-15T10:21:02.417Z,28.07
2023-04-15T10:22:02.417Z,28.09
2023-04-15T10:23:02.458Z,28.14
2023-04-15T10:24:02.825Z,28.16
2023-04-15T10:25:02.489Z,28.19
2023-04-15T10:26:02.504Z,28.36
2023-04-15T10:27:02.530Z,28.44
2023-04-15T10:28:02.572Z,28.46
2023-04-15T10:29:02.603Z,28.54
2023-04-15T10:30:02.629Z,28.58
2023-04-15T10:31:02.708Z,28.72
2023-04-15T10:32:02.748Z,28.79
2023-04-15T10:33:02.813Z,28.90
2023-04-15T10:34:03.039Z,28.95
2023-04-15T10:35:02.842Z,29.07
2023-04-15T10:36:02.875Z,29.07
2023-04-15T10:37:02.923Z,29.17
2023-04-15T10:38:02.972Z,29.23
2023-04-15T10:39:03.023Z,29.30
2023-04-15T10:40:03.070Z,29.30
2023-04-15T10:41:03.119Z,29.39
2023-04-15T10:42:03.172Z,29.40
2023-04-15T10:43:03.301Z,29.53
2023-04-15T10:44:03.552Z,29.60
2023-04-15T10:45:03.356Z,29.59
2023-04-15T10:46:03.433Z,29.66
2023-04-15T10:47:03.493Z,29.70
2023-04-15T10:48:04.009Z,29.86
2023-04-15T10:49:03.620Z,29.83
2023-04-15T10:50:03.714Z,29.82
2023-04-15T10:51:03.775Z,29.70
2023-04-15T10:52:03.802Z,29.70
2023-04-15T10:53:03.880Z,29.66
2023-04-15T10:54:04.148Z,29.46
2023-04-15T10:55:03.985Z,29.25
2023-04-15T10:56:04.032Z,29.18
2023-04-15T10:57:04.061Z,29.10
2023-04-15T10:58:04.104Z,28.99
2023-04-15T10:59:04.130Z,28.84
2023-04-15T11:00:04.351Z,28.59
2023-04-15T11:01:04.160Z,28.58
2023-04-15T11:02:04.310Z,28.52
2023-04-15T11:03:04.268Z,28.35
2023-04-15T11:04:04.594Z,28.37
2023-04-15T11:05:04.208Z,28.37
2023-04-15T11:06:04.222Z,28.34
2023-04-15T11:07:04.273Z,28.38
2023-04-15T11:08:04.261Z,28.41
2023-04-15T11:09:04.250Z,28.40
2023-04-15T11:10:04.255Z,28.45
2023-04-15T11:11:04.267Z,28.44
2023-04-15T11:12:04.267Z,28.45
2023-04-15T11:13:04.266Z,28.45
2023-04-15T11:14:04.390Z,28.44
2023-04-15T11:15:04.268Z,28.45
2023-04-15T11:16:04.318Z,28.44
2023-04-15T11:17:04.278Z,28.41
2023-04-15T11:18:04.271Z,28.42
2023-04-15T11:19:04.252Z,28.40
2023-04-15T11:20:04.261Z,28.44
2023-04-15T11:21:04.261Z,28.40
2023-04-15T11:22:04.263Z,28.38
2023-04-15T11:23:14.510Z,28.45
2023-04-15T11:24:04.305Z,28.44
2023-04-15T11:25:04.240Z,28.52
2023-04-15T11:26:04.229Z,28.51
2023-04-15T11:27:04.220Z,28.49
2023-04-15T11:28:04.228Z,28.50
2023-04-15T11:29:04.445Z,28.51
2023-04-15T11:30:04.216Z,28.47
2023-04-15T11:31:04.205Z,28.54
2023-04-15T11:32:04.215Z,28.55
2023-04-15T11:33:04.230Z,28.52
2023-04-15T11:34:04.377Z,28.52
2023-04-15T11:35:04.195Z,28.53
2023-04-15T11:36:04.176Z,28.50
2023-04-15T11:37:04.177Z,28.54
2023-04-15T11:38:04.175Z,28.54
2023-04-15T11:39:04.175Z,28.53
2023-04-15T11:40:04.148Z,28.51
2023-04-15T11:41:04.145Z,28.56
2023-04-15T11:42:04.140Z,28.54
2023-04-15T11:43:04.129Z,28.52
2023-04-15T11:44:04.278Z,28.54
2023-04-15T11:45:04.108Z,28.54
2023-04-15T11:46:04.212Z,28.56
2023-04-15T11:47:04.099Z,28.54
2023-04-15T11:48:04.107Z,28.56
2023-04-15T11:49:04.082Z,28.56
2023-04-15T11:50:04.066Z,28.53
2023-04-15T11:51:04.077Z,28.57
2023-04-15T11:52:04.054Z,28.50
2023-04-15T11:53:06.280Z,28.56
2023-04-15T11:54:04.371Z,28.60
2023-04-15T11:55:04.067Z,28.58
2023-04-15T11:56:04.036Z,28.56
2023-04-15T11:57:04.019Z,28.60
2023-04-15T11:58:04.024Z,28.60
2023-04-15T11:59:04.013Z,28.57
2023-04-15T12:00:04.003Z,28.57
2023-04-15T12:01:03.987Z,28.58
2023-04-15T12:02:04.032Z,28.60
2023-04-15T12:03:04.174Z,28.58
2023-04-15T12:04:04.583Z,28.62
2023-04-15T12:05:04.079Z,28.60
2023-04-15T12:06:03.961Z,28.57
2023-04-15T12:07:03.947Z,28.60
2023-04-15T12:08:03.938Z,28.54
2023-04-15T12:09:03.942Z,28.60
2023-04-15T12:10:03.929Z,28.60
2023-04-15T12:11:03.947Z,28.61
2023-04-15T12:12:03.917Z,28.60
2023-04-15T12:13:03.903Z,28.61
2023-04-15T12:14:04.066Z,28.54
2023-04-15T12:15:03.893Z,28.60
2023-04-15T12:16:03.924Z,28.60
2023-04-15T12:17:03.881Z,28.58
2023-04-15T12:18:03.948Z,28.62
2023-04-15T12:19:03.897Z,28.60
2023-04-15T12:20:03.889Z,28.55
2023-04-15T12:21:03.878Z,28.62
2023-04-15T12:22:03.873Z,28.61
2023-04-15T12:23:03.869Z,28.62
2023-04-15T12:24:04.234Z,28.60
2023-04-15T12:25:03.873Z,28.57
2023-04-15T12:26:03.851Z,28.62
2023-04-15T12:27:03.866Z,28.58
2023-04-15T12:28:03.836Z,28.61
2023-04-15T12:29:03.832Z,28.58
2023-04-15T12:30:03.830Z,28.60
2023-04-15T12:31:03.834Z,28.57
2023-04-15T12:32:03.828Z,28.55
2023-04-15T12:33:03.848Z,28.58
2023-04-15T12:34:03.969Z,28.61
2023-04-15T12:35:03.795Z,28.51
2023-04-15T12:36:03.793Z,28.52
2023-04-15T12:37:03.810Z,28.52
2023-04-15T12:38:03.781Z,28.54
2023-04-15T12:39:03.780Z,28.57
2023-04-15T12:40:03.774Z,28.54
2023-04-15T12:41:03.782Z,28.54
2023-04-15T12:42:03.757Z,28.53
2023-04-15T12:43:03.784Z,28.48
2023-04-15T12:44:03.953Z,28.50
2023-04-15T12:45:03.741Z,28.48
2023-04-15T12:46:03.771Z,28.48
2023-04-15T12:47:03.763Z,28.52
2023-04-15T12:48:03.737Z,28.50
2023-04-15T12:49:03.718Z,28.52
2023-04-15T12:50:03.705Z,28.53
2023-04-15T12:51:05.617Z,28.51
2023-04-15T12:52:03.695Z,28.51
2023-04-15T12:53:03.697Z,28.52